Time;durP1;ratioP1;P1;durP2;ratioP2;P2;SDS_P1;SDS_P2;PMS_P1;PMS_P2;Temp;Humidity;BMP_temperature;BMP_pressure;BME280_temperature;BME280_humidity;BME280_pressure;Samples;Min_cycle;Max_cycle;Signal;HPM_P1;HPM_P2
2022/03/10 00:00:46;;;;;;;17.03;10.73;;;;;;;;;;5113288;28;20420;-74
2022/03/10 00:03:13;;;;;;;19.57;12.30;;;;;;;;;;5113364;28;20527;-74
2022/03/10 00:05:39;;;;;;;13.70;10.43;;;;;;;;;;5113251;28;20419;-74
2022/03/10 00:08:05;;;;;;;14.40;10.63;;;;;;;;;;5112776;28;20420;-74
2022/03/10 00:10:31;;;;;;;18.70;11.43;;;;;;;;;;5115384;28;20505;-74
2022/03/10 00:12:57;;;;;;;21.40;11.97;;;;;;;;;;5117165;28;20444;-75
2022/03/10 00:15:24;;;;;;;17.27;11.53;;;;;;;;;;5116765;28;20474;-74
2022/03/10 00:17:50;;;;;;;17.00;12.17;;;;;;;;;;5116884;28;20438;-74
2022/03/10 00:20:16;;;;;;;20.23;10.80;;;;;;;;;;5116733;28;20468;-74
2022/03/10 00:22:43;;;;;;;22.73;11.30;;;;;;;;;;5117020;28;20415;-75
2022/03/10 00:25:09;;;;;;;23.23;11.20;;;;;;;;;;5116801;28;20431;-74
2022/03/10 00:27:35;;;;;;;15.30;11.57;;;;;;;;;;5116450;28;20411;-73
2022/03/10 00:30:01;;;;;;;14.80;10.40;;;;;;;;;;5116660;28;20427;-73
2022/03/10 00:32:27;;;;;;;16.07;11.90;;;;;;;;;;5116753;28;20416;-74
2022/03/10 00:34:53;;;;;;;18.77;11.10;;;;;;;;;;5116616;28;20479;-75
2022/03/10 00:37:19;;;;;;;16.90;12.03;;;;;;;;;;5116344;28;20821;-74
2022/03/10 00:39:45;;;;;;;15.00;11.40;;;;;;;;;;5116210;28;20579;-74
2022/03/10 00:42:11;;;;;;;24.00;12.37;;;;;;;;;;5116339;28;20454;-74
2022/03/10 00:44:37;;;;;;;19.10;12.50;;;;;;;;;;5116541;28;20431;-74
2022/03/10 00:47:03;;;;;;;19.37;11.97;;;;;;;;;;5116852;28;20823;-75
2022/03/10 00:49:29;;;;;;;19.93;12.40;;;;;;;;;;5115870;28;20885;-74
2022/03/10 00:51:54;;;;;;;17.73;12.47;;;;;;;;;;5116329;28;20411;-75
2022/03/10 00:54:20;;;;;;;14.87;12.60;;;;;;;;;;5116222;28;20483;-74
2022/03/10 00:56:46;;;;;;;25.57;13.10;;;;;;;;;;5097819;28;20476;-75
2022/03/10 00:59:12;;;;;;;20.33;12.70;;;;;;;;;;5115862;28;20411;-74
2022/03/10 01:01:38;;;;;;;21.53;12.87;;;;;;;;;;5116516;28;20403;-74
2022/03/10 01:04:04;;;;;;;18.13;12.70;;;;;;;;;;5097675;28;20420;-73
2022/03/10 01:06:30;;;;;;;14.73;11.00;;;;;;;;;;5116755;28;20435;-74
2022/03/10 01:08:56;;;;;;;17.73;12.80;;;;;;;;;;5115936;28;20412;-74
2022/03/10 01:11:22;;;;;;;18.77;12.20;;;;;;;;;;5115770;28;20423;-75
2022/03/10 01:13:48;;;;;;;19.93;12.37;;;;;;;;;;5115647;28;20455;-73
2022/03/10 01:16:14;;;;;;;21.30;12.53;;;;;;;;;;5115990;28;20419;-74
2022/03/10 01:18:40;;;;;;;18.73;12.30;;;;;;;;;;5116232;28;20407;-74
2022/03/10 01:21:06;;;;;;;17.40;11.97;;;;;;;;;;5115629;28;20421;-74
2022/03/10 01:26:35;;;;;;;18.87;13.97;;;;;;;;;;5115616;28;20442;-75
2022/03/10 01:29:01;;;;;;;22.17;13.83;;;;;;;;;;5115693;28;20913;-74
2022/03/10 01:31:27;;;;;;;27.10;12.77;;;;;;;;;;5115423;28;20924;-75
2022/03/10 01:33:53;;;;;;;22.40;13.67;;;;;;;;;;5115410;28;20460;-74
2022/03/10 01:36:19;;;;;;;23.67;13.60;;;;;;;;;;5115442;28;20788;-74
2022/03/10 01:38:45;;;;;;;23.07;15.17;;;;;;;;;;5115269;28;20407;-74
2022/03/10 01:41:11;;;;;;;24.00;14.40;;;;;;;;;;5115169;28;20419;-73
2022/03/10 01:43:56;;;;;;;27.70;15.40;;;;;;;;;;5114882;28;20511;-74
2022/03/10 01:46:22;;;;;;;24.07;14.47;;;;;;;;;;5115112;28;20465;-74
2022/03/10 01:48:48;;;;;;;20.80;12.40;;;;;;;;;;5114975;28;20459;-75
2022/03/10 01:51:14;;;;;;;27.53;14.37;;;;;;;;;;5115325;28;20954;-74
2022/03/10 01:53:41;;;;;;;21.10;13.73;;;;;;;;;;5114707;28;20931;-74
2022/03/10 01:56:07;;;;;;;20.30;13.10;;;;;;;;;;5114863;28;20431;-74
2022/03/10 01:58:34;;;;;;;19.87;13.47;;;;;;;;;;5115078;28;20412;-74
2022/03/10 02:01:00;;;;;;;32.07;13.93;;;;;;;;;;5115004;28;20419;-75
2022/03/10 02:03:26;;;;;;;18.93;13.87;;;;;;;;;;5114919;28;20412;-74
2022/03/10 02:05:53;;;;;;;19.83;12.90;;;;;;;;;;5115426;28;20419;-74
2022/03/10 02:11:04;;;;;;;21.60;13.93;;;;;;;;;;5114675;28;20453;-75
2022/03/10 02:13:32;;;;;;;19.20;13.00;;;;;;;;;;5114605;28;20415;-74
2022/03/10 02:18:42;;;;;;;22.27;13.00;;;;;;;;;;5114836;28;20500;-75
2022/03/10 02:21:08;;;;;;;22.90;12.80;;;;;;;;;;5114667;28;20416;-74
2022/03/10 02:23:34;;;;;;;25.97;12.87;;;;;;;;;;5114270;28;20408;-74
2022/03/10 02:26:00;;;;;;;22.63;13.50;;;;;;;;;;5114347;28;20416;-75
2022/03/10 02:28:27;;;;;;;16.57;12.00;;;;;;;;;;5114193;28;20909;-73
2022/03/10 02:30:54;;;;;;;19.00;11.80;;;;;;;;;;5114545;28;20416;-74
2022/03/10 02:33:20;;;;;;;19.47;12.50;;;;;;;;;;5113932;28;20494;-74
2022/03/10 02:35:46;;;;;;;21.47;12.57;;;;;;;;;;5113808;28;20471;-74
2022/03/10 02:38:17;;;;;;;20.83;12.80;;;;;;;;;;5114022;28;20416;-74
2022/03/10 02:40:44;;;;;;;17.07;11.70;;;;;;;;;;5114339;28;20458;-74
2022/03/10 02:43:10;;;;;;;19.40;13.03;;;;;;;;;;5114021;28;20418;-74
2022/03/10 02:45:36;;;;;;;17.87;11.10;;;;;;;;;;5113882;28;20404;-74
2022/03/10 02:48:02;;;;;;;16.67;11.63;;;;;;;;;;5113800;28;20451;-74
2022/03/10 02:50:28;;;;;;;15.97;11.50;;;;;;;;;;5114441;28;20848;-74
2022/03/10 02:52:54;;;;;;;21.43;12.60;;;;;;;;;;5114026;28;20416;-74
2022/03/10 02:55:21;;;;;;;17.00;10.67;;;;;;;;;;5113508;28;20654;-75
2022/03/10 02:57:47;;;;;;;18.03;10.50;;;;;;;;;;5113916;28;20419;-75
2022/03/10 03:00:16;;;;;;;14.57;10.50;;;;;;;;;;5113933;28;20420;-74
2022/03/10 03:02:42;;;;;;;20.03;11.17;;;;;;;;;;5113653;28;20408;-74
2022/03/10 03:05:09;;;;;;;15.87;10.90;;;;;;;;;;5113691;28;20415;-74
2022/03/10 03:07:35;;;;;;;15.17;11.50;;;;;;;;;;5113632;28;20422;-75
2022/03/10 03:10:01;;;;;;;12.07;9.50;;;;;;;;;;5113589;28;20426;-73
2022/03/10 03:12:27;;;;;;;15.23;10.50;;;;;;;;;;5113916;28;20408;-74
2022/03/10 03:14:54;;;;;;;14.80;10.97;;;;;;;;;;5113241;28;20471;-74
2022/03/10 03:17:20;;;;;;;16.93;11.87;;;;;;;;;;5113467;28;20416;-74
2022/03/10 03:19:46;;;;;;;15.20;11.97;;;;;;;;;;5113446;28;20415;-74
2022/03/10 03:22:12;;;;;;;16.50;10.57;;;;;;;;;;5095193;28;20550;-73
2022/03/10 03:24:38;;;;;;;18.17;12.97;;;;;;;;;;5113252;28;20416;-73
2022/03/10 03:27:04;;;;;;;16.00;10.80;;;;;;;;;;5113398;28;20766;-75
2022/03/10 03:29:30;;;;;;;14.17;10.30;;;;;;;;;;5113592;28;20812;-74
2022/03/10 03:31:56;;;;;;;19.60;10.83;;;;;;;;;;5113322;28;20889;-74
2022/03/10 03:34:22;;;;;;;35.43;12.10;;;;;;;;;;5112827;28;20949;-75
2022/03/10 03:36:48;;;;;;;16.90;10.40;;;;;;;;;;5113308;28;20416;-74
2022/03/10 03:39:15;;;;;;;10.97;9.43;;;;;;;;;;5113479;28;20818;-73
2022/03/10 03:41:41;;;;;;;15.00;10.67;;;;;;;;;;5113017;28;20420;-76
2022/03/10 03:44:07;;;;;;;14.90;10.20;;;;;;;;;;5113293;28;20412;-75
2022/03/10 03:46:34;;;;;;;17.43;10.77;;;;;;;;;;5117169;28;20822;-75
2022/03/10 03:49:00;;;;;;;17.20;11.67;;;;;;;;;;5117492;28;20964;-74
2022/03/10 03:51:26;;;;;;;14.07;11.07;;;;;;;;;;5099452;28;20464;-74
2022/03/10 03:53:52;;;;;;;19.63;12.20;;;;;;;;;;5117399;28;20540;-73
2022/03/10 03:56:18;;;;;;;15.80;10.73;;;;;;;;;;5117336;28;20420;-75
2022/03/10 03:58:44;;;;;;;15.10;11.87;;;;;;;;;;5117286;28;20446;-74
2022/03/10 04:01:10;;;;;;;16.70;10.80;;;;;;;;;;5117613;28;20421;-74
2022/03/10 04:03:36;;;;;;;18.80;10.40;;;;;;;;;;5117278;28;20412;-75
2022/03/10 04:06:02;;;;;;;16.77;11.37;;;;;;;;;;5117261;28;20423;-75
2022/03/10 04:08:28;;;;;;;14.27;10.13;;;;;;;;;;5117122;28;20418;-75
2022/03/10 04:10:54;;;;;;;15.33;11.07;;;;;;;;;;5117138;28;20415;-75
2022/03/10 04:13:24;;;;;;;29.50;11.30;;;;;;;;;;5117404;28;20412;-73
2022/03/10 04:15:51;;;;;;;15.70;11.20;;;;;;;;;;5117079;28;21000;-74
2022/03/10 04:18:17;;;;;;;19.60;10.47;;;;;;;;;;5116908;28;20418;-74
2022/03/10 04:20:43;;;;;;;20.53;11.33;;;;;;;;;;5116926;28;20430;-74
2022/03/10 04:23:10;;;;;;;14.30;11.43;;;;;;;;;;5117016;28;20422;-74
2022/03/10 04:25:36;;;;;;;18.20;11.07;;;;;;;;;;5116591;28;20416;-75
2022/03/10 04:28:02;;;;;;;17.20;10.23;;;;;;;;;;5098239;28;20474;-74
2022/03/10 04:30:29;;;;;;;15.43;10.40;;;;;;;;;;5116416;28;20469;-74
2022/03/10 04:32:55;;;;;;;17.90;11.97;;;;;;;;;;5116465;28;20419;-75
2022/03/10 04:35:21;;;;;;;16.20;11.87;;;;;;;;;;5116266;28;20486;-75
2022/03/10 04:37:50;;;;;;;19.80;10.70;;;;;;;;;;5116418;28;20407;-75
2022/03/10 04:40:16;;;;;;;18.13;10.47;;;;;;;;;;5116408;28;20419;-75
2022/03/10 04:42:43;;;;;;;18.00;12.03;;;;;;;;;;5116879;28;20738;-75
2022/03/10 04:45:09;;;;;;;22.20;11.50;;;;;;;;;;5116561;28;20418;-75
2022/03/10 04:47:35;;;;;;;16.50;10.90;;;;;;;;;;5116399;28;20452;-74
2022/03/10 04:50:01;;;;;;;19.20;13.10;;;;;;;;;;5116078;28;20828;-73
2022/03/10 04:52:28;;;;;;;19.80;11.13;;;;;;;;;;5116211;28;20408;-75
2022/03/10 04:54:54;;;;;;;16.30;11.20;;;;;;;;;;5116023;28;20472;-74
2022/03/10 04:57:20;;;;;;;17.77;11.83;;;;;;;;;;5115640;28;20407;-74
2022/03/10 04:59:46;;;;;;;16.07;10.83;;;;;;;;;;5116037;28;20421;-74
2022/03/10 05:02:12;;;;;;;12.40;10.17;;;;;;;;;;5116417;28;20408;-75
2022/03/10 05:04:38;;;;;;;19.90;11.30;;;;;;;;;;5116429;28;20477;-75
2022/03/10 05:07:04;;;;;;;15.30;10.87;;;;;;;;;;5115890;28;20896;-75
2022/03/10 05:09:30;;;;;;;16.80;10.40;;;;;;;;;;5115786;28;20455;-75
2022/03/10 05:11:56;;;;;;;17.67;11.10;;;;;;;;;;5115936;28;20404;-74
2022/03/10 05:14:24;;;;;;;14.50;11.00;;;;;;;;;;5115587;28;20542;-74
2022/03/10 05:16:50;;;;;;;16.73;11.70;;;;;;;;;;5115694;28;20427;-74
2022/03/10 05:19:16;;;;;;;19.40;10.50;;;;;;;;;;5115426;28;20411;-74
2022/03/10 05:21:42;;;;;;;18.13;11.17;;;;;;;;;;5115916;28;20480;-75
2022/03/10 05:24:08;;;;;;;19.13;11.80;;;;;;;;;;5115791;28;20561;-73
2022/03/10 05:26:34;;;;;;;18.33;12.17;;;;;;;;;;5115441;28;20757;-74
2022/03/10 05:29:00;;;;;;;19.20;12.00;;;;;;;;;;5115656;28;20415;-75
2022/03/10 05:31:28;;;;;;;24.03;11.70;;;;;;;;;;5115716;28;20483;-74
2022/03/10 05:33:54;;;;;;;22.30;13.97;;;;;;;;;;5115265;28;20466;-74
2022/03/10 05:36:19;;;;;;;20.77;12.23;;;;;;;;;;5115446;28;20424;-74
2022/03/10 05:38:46;;;;;;;22.60;12.67;;;;;;;;;;5115362;28;20927;-75
2022/03/10 05:41:12;;;;;;;22.70;13.20;;;;;;;;;;5116023;28;20476;-74
2022/03/10 05:43:38;;;;;;;24.20;14.43;;;;;;;;;;5115373;28;20414;-75
2022/03/10 05:46:04;;;;;;;25.47;13.90;;;;;;;;;;5115072;28;20428;-74
2022/03/10 05:48:30;;;;;;;30.73;15.77;;;;;;;;;;5115081;28;20507;-75
2022/03/10 05:50:57;;;;;;;23.80;16.37;;;;;;;;;;5115199;28;20420;-75
2022/03/10 05:53:23;;;;;;;22.83;14.90;;;;;;;;;;5114894;28;20416;-74
2022/03/10 05:55:49;;;;;;;33.33;15.47;;;;;;;;;;5115081;28;20516;-75
2022/03/10 05:58:15;;;;;;;24.17;14.97;;;;;;;;;;5115455;28;20750;-74
2022/03/10 06:00:41;;;;;;;29.53;15.47;;;;;;;;;;5114597;28;20767;-75
2022/03/10 06:03:07;;;;;;;24.20;15.10;;;;;;;;;;5114649;28;20496;-74
2022/03/10 06:05:33;;;;;;;24.10;14.40;;;;;;;;;;5114662;28;20507;-74
2022/03/10 06:08:00;;;;;;;23.60;15.63;;;;;;;;;;5114128;28;20414;-75
2022/03/10 06:10:26;;;;;;;22.67;14.77;;;;;;;;;;5115000;28;20451;-74
2022/03/10 06:12:52;;;;;;;24.40;15.23;;;;;;;;;;5114567;28;20844;-74
2022/03/10 06:15:18;;;;;;;27.00;16.60;;;;;;;;;;5114444;28;20561;-74
2022/03/10 06:17:44;;;;;;;31.53;16.17;;;;;;;;;;5114475;28;20510;-74
2022/03/10 06:20:14;;;;;;;25.03;15.47;;;;;;;;;;5114612;28;20473;-74
2022/03/10 06:22:40;;;;;;;23.70;14.93;;;;;;;;;;5114645;28;20396;-75
2022/03/10 06:25:06;;;;;;;32.97;15.50;;;;;;;;;;5114523;28;20932;-75
2022/03/10 06:27:33;;;;;;;24.57;16.37;;;;;;;;;;5114825;28;20898;-73
2022/03/10 06:29:59;;;;;;;21.43;13.70;;;;;;;;;;5114308;28;20408;-74
2022/03/10 06:32:25;;;;;;;25.77;14.50;;;;;;;;;;5114077;28;20508;-74
2022/03/10 06:34:51;;;;;;;25.57;15.87;;;;;;;;;;5114096;28;20512;-75
2022/03/10 06:37:18;;;;;;;26.87;13.97;;;;;;;;;;5114092;28;20407;-74
2022/03/10 06:39:44;;;;;;;27.67;16.20;;;;;;;;;;5114036;28;20444;-73
2022/03/10 06:42:10;;;;;;;28.43;15.17;;;;;;;;;;5114148;28;20414;-74
2022/03/10 06:44:36;;;;;;;24.60;13.90;;;;;;;;;;5114201;28;20416;-75
2022/03/10 06:47:04;;;;;;;28.10;18.17;;;;;;;;;;5113958;28;20813;-74
2022/03/10 06:49:30;;;;;;;33.30;18.53;;;;;;;;;;5113406;28;20464;-74
2022/03/10 06:51:56;;;;;;;32.10;18.10;;;;;;;;;;5114360;28;20498;-74
2022/03/10 06:54:22;;;;;;;29.90;17.33;;;;;;;;;;5113515;28;20507;-75
2022/03/10 06:56:48;;;;;;;24.93;16.83;;;;;;;;;;5113497;28;20412;-74
2022/03/10 06:59:14;;;;;;;30.37;18.57;;;;;;;;;;5113925;28;20476;-74
2022/03/10 07:01:41;;;;;;;28.93;16.07;;;;;;;;;;5113588;28;20420;-73
2022/03/10 07:04:07;;;;;;;27.73;15.23;;;;;;;;;;5113635;28;20408;-74
2022/03/10 07:06:33;;;;;;;20.73;14.63;;;;;;;;;;5114180;28;20420;-74
2022/03/10 07:08:59;;;;;;;24.10;15.53;;;;;;;;;;5114355;28;20456;-73
2022/03/10 07:11:25;;;;;;;22.67;14.40;;;;;;;;;;5113585;28;20419;-73
2022/03/10 07:13:52;;;;;;;30.13;15.10;;;;;;;;;;5113485;28;20408;-73
2022/03/10 07:16:18;;;;;;;21.63;15.00;;;;;;;;;;5113388;28;20450;-73
2022/03/10 07:18:50;;;;;;;27.23;16.93;;;;;;;;;;5112815;28;20506;-74
2022/03/10 07:21:17;;;;;;;28.17;16.33;;;;;;;;;;5113164;28;20430;-73
2022/03/10 07:23:43;;;;;;;24.30;16.37;;;;;;;;;;5113433;28;20434;-73
2022/03/10 07:26:10;;;;;;;24.60;15.77;;;;;;;;;;5113496;28;20423;-71
2022/03/10 07:28:36;;;;;;;29.73;17.47;;;;;;;;;;5113380;28;20431;-73
2022/03/10 07:31:02;;;;;;;24.77;15.27;;;;;;;;;;5113305;28;20447;-71
2022/03/10 07:33:28;;;;;;;29.47;16.77;;;;;;;;;;5113069;28;20868;-74
2022/03/10 07:35:54;;;;;;;25.50;16.70;;;;;;;;;;5113172;28;20557;-73
2022/03/10 07:38:20;;;;;;;30.80;16.37;;;;;;;;;;5113798;28;20506;-73
2022/03/10 07:40:46;;;;;;;24.07;14.77;;;;;;;;;;5113409;28;20486;-76
2022/03/10 07:43:12;;;;;;;26.53;16.67;;;;;;;;;;5112881;28;20881;-73
2022/03/10 07:45:38;;;;;;;28.00;15.50;;;;;;;;;;5113019;28;20779;-73
2022/03/10 07:48:04;;;;;;;28.43;15.77;;;;;;;;;;5112681;28;20467;-74
2022/03/10 07:50:30;;;;;;;25.97;15.90;;;;;;;;;;5113151;28;20414;-74
2022/03/10 07:52:56;;;;;;;22.77;14.67;;;;;;;;;;5112501;28;20412;-73
2022/03/10 07:55:22;;;;;;;27.37;17.77;;;;;;;;;;5113158;28;20552;-74
2022/03/10 07:57:49;;;;;;;24.07;16.67;;;;;;;;;;5112778;28;20411;-74
2022/03/10 08:00:15;;;;;;;30.77;17.20;;;;;;;;;;5112947;28;20510;-75
2022/03/10 08:02:42;;;;;;;30.60;18.07;;;;;;;;;;5112833;28;20408;-75
2022/03/10 08:05:08;;;;;;;30.10;17.10;;;;;;;;;;5112661;28;20423;-74
2022/03/10 08:07:34;;;;;;;27.30;15.77;;;;;;;;;;5094144;28;20432;-73
2022/03/10 08:10:04;;;;;;;30.90;17.10;;;;;;;;;;5113005;28;20456;-74
2022/03/10 08:12:31;;;;;;;35.80;17.10;;;;;;;;;;5112908;28;20408;-75
2022/03/10 08:14:57;;;;;;;25.73;16.37;;;;;;;;;;5112602;28;20999;-73
2022/03/10 08:17:23;;;;;;;24.83;15.30;;;;;;;;;;5112864;28;20455;-73
2022/03/10 08:19:49;;;;;;;32.37;18.00;;;;;;;;;;5113108;28;20415;-74
2022/03/10 08:22:16;;;;;;;32.20;18.37;;;;;;;;;;5112866;28;21009;-73
2022/03/10 08:24:42;;;;;;;29.70;17.43;;;;;;;;;;5112775;28;20462;-72
2022/03/10 08:27:08;;;;;;;27.73;16.03;;;;;;;;;;5112882;28;20439;-74
2022/03/10 08:29:34;;;;;;;36.10;18.47;;;;;;;;;;5112648;28;20925;-72
2022/03/10 08:32:00;;;;;;;28.90;17.20;;;;;;;;;;5115449;28;20460;-76
2022/03/10 08:34:26;;;;;;;36.20;17.87;;;;;;;;;;5116290;28;20471;-74
2022/03/10 08:36:52;;;;;;;31.00;17.67;;;;;;;;;;5097979;28;20416;-73
2022/03/10 08:39:18;;;;;;;27.23;16.80;;;;;;;;;;5116109;28;20419;-72
2022/03/10 08:41:44;;;;;;;32.60;17.50;;;;;;;;;;5116223;28;20439;-73
2022/03/10 08:44:12;;;;;;;30.37;17.97;;;;;;;;;;5116115;28;20500;-75
2022/03/10 08:46:38;;;;;;;22.80;15.50;;;;;;;;;;5116137;28;20484;-73
2022/03/10 08:49:04;;;;;;;28.53;17.87;;;;;;;;;;5115880;28;20471;-75
2022/03/10 08:51:30;;;;;;;42.03;17.20;;;;;;;;;;5115785;28;20468;-74
2022/03/10 08:53:56;;;;;;;31.23;17.30;;;;;;;;;;5116006;28;20440;-74
2022/03/10 08:56:22;;;;;;;34.97;17.97;;;;;;;;;;5115861;28;20590;-74
2022/03/10 08:58:48;;;;;;;28.00;17.93;;;;;;;;;;5115799;28;20432;-73
2022/03/10 09:01:14;;;;;;;33.67;18.27;;;;;;;;;;5115819;28;20427;-73
2022/03/10 09:03:40;;;;;;;41.30;17.73;;;;;;;;;;5115832;28;20408;-72
2022/03/10 09:06:09;;;;;;;26.40;16.87;;;;;;;;;;5115742;28;20429;-73
2022/03/10 09:08:36;;;;;;;24.87;16.93;;;;;;;;;;5115623;28;20411;-77
2022/03/10 09:11:02;;;;;;;26.10;15.10;;;;;;;;;;5115510;28;20419;-72
2022/03/10 09:13:29;;;;;;;31.97;16.80;;;;;;;;;;5115746;28;20545;-72
2022/03/10 09:15:55;;;;;;;23.07;14.50;;;;;;;;;;5115477;28;20463;-73
2022/03/10 09:18:21;;;;;;;29.77;17.03;;;;;;;;;;5115800;28;20961;-74
2022/03/10 09:20:47;;;;;;;32.10;17.43;;;;;;;;;;5115266;28;20422;-74
2022/03/10 09:23:13;;;;;;;23.90;15.00;;;;;;;;;;5115852;28;20420;-74
2022/03/10 09:25:39;;;;;;;24.00;15.50;;;;;;;;;;5096939;28;20427;-73
2022/03/10 09:28:05;;;;;;;27.43;15.97;;;;;;;;;;5115286;28;20499;-73
2022/03/10 09:30:31;;;;;;;27.77;16.50;;;;;;;;;;5115410;28;20485;-72
2022/03/10 09:33:01;;;;;;;24.80;14.83;;;;;;;;;;5115332;28;20777;-74
2022/03/10 09:35:27;;;;;;;24.13;14.93;;;;;;;;;;5115378;28;20478;-74
2022/03/10 09:37:53;;;;;;;30.87;15.40;;;;;;;;;;5114878;28;20494;-73
2022/03/10 09:40:19;;;;;;;26.80;14.97;;;;;;;;;;5115416;28;20415;-75
2022/03/10 09:42:47;;;;;;;28.60;15.07;;;;;;;;;;5113645;28;20533;-72
2022/03/10 09:45:14;;;;;;;31.60;15.47;;;;;;;;;;5114823;28;20548;-73
2022/03/10 09:47:42;;;;;;;25.83;16.00;;;;;;;;;;5115178;28;20444;-73
2022/03/10 09:50:10;;;;;;;25.27;15.20;;;;;;;;;;5115204;28;20431;-73
2022/03/10 09:52:36;;;;;;;31.67;16.37;;;;;;;;;;5114812;28;20414;-74
2022/03/10 09:55:03;;;;;;;22.43;14.40;;;;;;;;;;5114902;28;20475;-74
2022/03/10 09:57:29;;;;;;;33.73;14.77;;;;;;;;;;5115145;28;20415;-75
2022/03/10 09:59:59;;;;;;;24.57;14.57;;;;;;;;;;5114721;28;20430;-75
2022/03/10 10:02:25;;;;;;;24.87;14.20;;;;;;;;;;5114695;28;20494;-74
2022/03/10 10:04:51;;;;;;;28.20;16.30;;;;;;;;;;5114479;28;20412;-73
2022/03/10 10:07:22;;;;;;;31.67;15.97;;;;;;;;;;5115086;28;20426;-75
2022/03/10 10:09:48;;;;;;;30.70;15.30;;;;;;;;;;5114315;28;20961;-74
2022/03/10 10:12:15;;;;;;;24.73;15.13;;;;;;;;;;5114609;28;20795;-74
2022/03/10 10:14:50;;;;;;;27.67;15.83;;;;;;;;;;5114239;28;20466;-75
2022/03/10 10:17:16;;;;;;;26.80;16.57;;;;;;;;;;5096308;28;20819;-74
2022/03/10 10:19:42;;;;;;;25.43;15.10;;;;;;;;;;5095940;28;20438;-74
2022/03/10 10:22:16;;;;;;;38.40;16.03;;;;;;;;;;5114344;28;20408;-73
2022/03/10 10:24:51;;;;;;;23.50;14.07;;;;;;;;;;5114533;28;20813;-74
2022/03/10 10:27:19;;;;;;;44.07;16.67;;;;;;;;;;5114297;28;20407;-74
2022/03/10 10:29:46;;;;;;;28.83;16.87;;;;;;;;;;5114625;28;20424;-74
2022/03/10 10:32:12;;;;;;;30.03;16.20;;;;;;;;;;5114108;28;20407;-75
2022/03/10 10:34:38;;;;;;;23.57;14.30;;;;;;;;;;5113743;28;20467;-75
2022/03/10 10:37:04;;;;;;;25.17;16.30;;;;;;;;;;5114467;28;20419;-75
2022/03/10 10:39:30;;;;;;;30.40;15.83;;;;;;;;;;5114041;28;20416;-72
2022/03/10 10:41:56;;;;;;;29.73;17.03;;;;;;;;;;5114299;28;20434;-74
2022/03/10 10:44:25;;;;;;;33.42;18.95;;;;;;;;;;5114242;28;20865;-74
2022/03/10 10:47:00;;;;;;;30.55;17.45;;;;;;;;;;5113975;28;20452;-68
2022/03/10 10:49:27;;;;;;;26.53;17.13;;;;;;;;;;5095464;28;20312;-74
2022/03/10 10:51:53;;;;;;;30.20;16.50;;;;;;;;;;5113737;28;20901;-74
2022/03/10 10:54:23;;;;;;;37.60;16.63;;;;;;;;;;5113811;28;20500;-75
2022/03/10 10:56:50;;;;;;;30.77;17.10;;;;;;;;;;5114083;28;20423;-74
2022/03/10 10:59:45;;;;;;;28.03;14.67;;;;;;;;;;5095313;28;20424;-74
2022/03/10 11:02:13;;;;;;;28.60;15.53;;;;;;;;;;5092484;28;20412;-73
2022/03/10 11:04:40;;;;;;;27.00;15.90;;;;;;;;;;5113790;28;20416;-75
2022/03/10 11:07:08;;;;;;;30.97;17.33;;;;;;;;;;5113697;28;20403;-75
2022/03/10 11:09:34;;;;;;;34.93;17.30;;;;;;;;;;5113679;28;20515;-74
2022/03/10 11:12:00;;;;;;;28.30;16.10;;;;;;;;;;5095314;28;20412;-74
2022/03/10 11:14:26;;;;;;;33.93;20.20;;;;;;;;;;5113280;28;20497;-74
2022/03/10 11:16:53;;;;;;;26.83;16.90;;;;;;;;;;5114043;28;20928;-75
2022/03/10 11:19:25;;;;;;;36.17;18.23;;;;;;;;;;5113306;28;20499;-74
2022/03/10 11:22:06;;;;;;;28.10;17.33;;;;;;;;;;5113445;28;20397;-75
2022/03/10 11:24:41;;;;;;;43.37;18.60;;;;;;;;;;5113035;28;20422;-75
2022/03/10 11:27:11;;;;;;;40.43;16.53;;;;;;;;;;5113365;28;20460;-76
2022/03/10 11:29:38;;;;;;;26.53;16.70;;;;;;;;;;5113124;28;20450;-74
2022/03/10 11:32:07;;;;;;;30.63;18.30;;;;;;;;;;5113580;28;20412;-71
2022/03/10 11:34:46;;;;;;;31.13;20.80;;;;;;;;;;5113046;28;20460;-73
2022/03/10 11:37:12;;;;;;;33.30;18.20;;;;;;;;;;5113322;28;20419;-74
2022/03/10 11:39:54;;;;;;;36.33;18.77;;;;;;;;;;5112847;28;20460;-75
2022/03/10 11:42:25;;;;;;;37.90;19.10;;;;;;;;;;5113447;28;20513;-74
2022/03/10 11:45:05;;;;;;;31.03;16.73;;;;;;;;;;5112605;28;20909;-75
2022/03/10 11:47:31;;;;;;;30.00;18.40;;;;;;;;;;5113299;28;20738;-73
2022/03/10 11:49:57;;;;;;;33.80;17.00;;;;;;;;;;5094414;28;20831;-74
2022/03/10 11:52:25;;;;;;;30.37;17.87;;;;;;;;;;5113074;28;20560;-73
2022/03/10 11:55:03;;;;;;;34.70;17.33;;;;;;;;;;5112676;28;21018;-75
2022/03/10 11:57:29;;;;;;;28.10;15.43;;;;;;;;;;5113048;28;20414;-73
2022/03/10 11:59:55;;;;;;;35.17;20.27;;;;;;;;;;5112978;28;20404;-74
2022/03/10 12:02:31;;;;;;;32.97;19.20;;;;;;;;;;5113324;28;20778;-75
2022/03/10 12:04:57;;;;;;;46.90;20.83;;;;;;;;;;5113007;28;20414;-74
2022/03/10 12:07:28;;;;;;;30.10;17.60;;;;;;;;;;5116430;28;20514;-75
2022/03/10 12:10:05;;;;;;;25.03;14.90;;;;;;;;;;5117316;28;20392;-75
2022/03/10 12:12:35;;;;;;;30.77;18.57;;;;;;;;;;5116632;28;20419;-75
2022/03/10 12:15:20;;;;;;;41.87;21.97;;;;;;;;;;5116637;28;20459;-76
2022/03/10 12:17:46;;;;;;;29.40;19.03;;;;;;;;;;5098414;28;20420;-75
2022/03/10 12:20:16;;;;;;;44.73;23.57;;;;;;;;;;5116780;28;20491;-75
2022/03/10 12:23:01;;;;;;;35.63;20.00;;;;;;;;;;5116291;28;20554;-74
2022/03/10 12:25:27;;;;;;;13.77;9.00;;;;;;;;;;5116793;28;20399;-76
2022/03/10 12:27:54;;;;;;;35.10;17.50;;;;;;;;;;5116381;28;20451;-73
2022/03/10 12:30:22;;;;;;;33.93;19.20;;;;;;;;;;5098330;28;20406;-72
2022/03/10 12:32:51;;;;;;;30.60;17.10;;;;;;;;;;5117152;28;20439;-73
2022/03/10 12:35:19;;;;;;;33.87;18.10;;;;;;;;;;5116619;28;20493;-75
2022/03/10 12:37:48;;;;;;;31.83;17.23;;;;;;;;;;5116115;28;20418;-74
2022/03/10 12:40:21;;;;;;;35.77;19.40;;;;;;;;;;5116695;28;20977;-74
2022/03/10 12:42:47;;;;;;;33.47;18.53;;;;;;;;;;5116658;28;20539;-75
2022/03/10 12:45:18;;;;;;;41.87;20.73;;;;;;;;;;5116299;28;20415;-73
2022/03/10 12:47:45;;;;;;;33.50;18.57;;;;;;;;;;5097515;28;20407;-74
2022/03/10 12:50:11;;;;;;;35.13;16.70;;;;;;;;;;5116491;28;20870;-75
2022/03/10 12:52:40;;;;;;;31.67;18.63;;;;;;;;;;5115807;28;20415;-74
2022/03/10 12:55:06;;;;;;;17.10;11.13;;;;;;;;;;5115966;28;20462;-74
2022/03/10 12:57:38;;;;;;;30.97;17.40;;;;;;;;;;5115845;28;20412;-74
2022/03/10 13:00:17;;;;;;;31.30;17.83;;;;;;;;;;5116215;28;20781;-73
2022/03/10 13:05:46;;;;;;;30.77;16.97;;;;;;;;;;5115889;28;20391;-75
2022/03/10 13:08:13;;;;;;;34.70;16.63;;;;;;;;;;5115921;28;20420;-73
2022/03/10 13:10:39;;;;;;;25.10;13.20;;;;;;;;;;5116613;28;20416;-73
2022/03/10 13:16:09;;;;;;;23.50;12.40;;;;;;;;;;5115420;28;20470;-74
2022/03/10 13:18:42;;;;;;;34.77;15.53;;;;;;;;;;5115280;28;20495;-74
2022/03/10 13:21:08;;;;;;;32.67;15.80;;;;;;;;;;5115505;28;20788;-74
2022/03/10 13:23:34;;;;;;;22.83;12.73;;;;;;;;;;5115496;28;20600;-73
2022/03/10 13:26:00;;;;;;;26.73;15.10;;;;;;;;;;5115784;28;20443;-73
2022/03/10 13:28:26;;;;;;;17.93;6.70;;;;;;;;;;5115504;28;20442;-73
2022/03/10 13:30:52;;;;;;;30.37;16.10;;;;;;;;;;5115530;28;20906;-73
2022/03/10 13:36:22;;;;;;;21.77;12.83;;;;;;;;;;5115268;28;20523;-75
2022/03/10 13:38:48;;;;;;;25.87;14.70;;;;;;;;;;5096882;28;20441;-75
2022/03/10 13:41:14;;;;;;;25.80;15.70;;;;;;;;;;5115170;28;20420;-74
2022/03/10 13:43:40;;;;;;;16.87;11.50;;;;;;;;;;5115277;28;20885;-74
2022/03/10 13:46:10;;;;;;;24.63;13.60;;;;;;;;;;5115067;28;20419;-73
2022/03/10 13:48:44;;;;;;;36.90;16.67;;;;;;;;;;5114799;28;20796;-73
2022/03/10 13:51:11;;;;;;;30.33;14.50;;;;;;;;;;5115240;28;20499;-73
2022/03/10 13:53:37;;;;;;;32.87;14.50;;;;;;;;;;5115226;28;20430;-74
2022/03/10 13:56:03;;;;;;;14.83;10.53;;;;;;;;;;5115029;28;20856;-74
2022/03/10 13:58:29;;;;;;;30.13;13.73;;;;;;;;;;5115068;28;20412;-74
2022/03/10 14:01:06;;;;;;;30.50;14.63;;;;;;;;;;5115246;28;20408;-75
2022/03/10 14:03:32;;;;;;;23.80;12.60;;;;;;;;;;5114870;28;20480;-72
2022/03/10 14:06:02;;;;;;;27.23;14.97;;;;;;;;;;5114683;28;20419;-73
2022/03/10 14:08:29;;;;;;;25.73;14.37;;;;;;;;;;5114485;28;20411;-74
2022/03/10 14:10:58;;;;;;;25.00;14.70;;;;;;;;;;5114467;28;20904;-74
2022/03/10 14:13:25;;;;;;;31.90;12.20;;;;;;;;;;5114539;28;20412;-74
2022/03/10 14:15:55;;;;;;;24.90;13.03;;;;;;;;;;5114638;28;20478;-73
2022/03/10 14:18:21;;;;;;;33.70;17.23;;;;;;;;;;5114389;28;20404;-73
2022/03/10 14:20:48;;;;;;;21.37;13.50;;;;;;;;;;5114375;28;20419;-74
2022/03/10 14:23:16;;;;;;;29.10;14.63;;;;;;;;;;5114400;28;20477;-74
2022/03/10 14:25:47;;;;;;;30.57;13.70;;;;;;;;;;5114014;28;20917;-74
2022/03/10 14:28:16;;;;;;;6.83;6.10;;;;;;;;;;5113499;28;20403;-75
2022/03/10 14:30:49;;;;;;;22.03;12.47;;;;;;;;;;5114426;28;20779;-76
2022/03/10 14:33:15;;;;;;;26.87;14.87;;;;;;;;;;5114159;28;20499;-74